Station Historical Data
Daily Summary for December 2, 2017 Units:  Both    English   Metric
« Previous Day
Next Day »
Daily Weekly Monthly Yearly Custom
  High: Low: Average:
Temperature: 44.8 °F /  7.1 °C 30.1 °F /  -1.1 °C 37.3 °F /  2.9 °C
Dew Point: 37.1 °F /  2.8 °C 26.7 °F /  -2.9 °C 31.4 °F /  -0.3 °C
Humidity: 88% 70% 79%
Wind Speed: 4.0mph /  6.4km/h - 0.3mph /  0.5km/h
Wind Gust: 6.0mph /  9.7km/h - -
Wind- - SSW
Pressure: 30.27 in /  1024.9 hPa 30.14 in /  1020.5 hPa -
Precipitation: 0.00 in /  0 mm    
Historical Graphs
 
 
Tabular Data for December 2, 2017
Time Temperature Dew Point Pressure Wind Wind Speed Wind Gust Humidity Rainfall Rate (Hourly)
00:14 32.1 °F /  0.1 °C 27.5 °F /  -2.5 °C 30.25in /  1024.3hPa Calm     83% 0.00in /  0mm
00:19 32.2 °F /  0.1 °C 27.6 °F /  -2.4 °C 30.25in /  1024.3hPa Calm     83% 0.00in /  0mm
00:24 32.1 °F /  0.1 °C 27.5 °F /  -2.5 °C 30.25in /  1024.3hPa Calm     83% 0.00in /  0mm
00:29 32.0 °F /  0 °C 27.4 °F /  -2.6 °C 30.25in /  1024.3hPa Calm     83% 0.00in /  0mm
00:34 31.9 °F /  -0.1 °C 27.3 °F /  -2.6 °C 30.25in /  1024.3hPa Calm     83% 0.00in /  0mm
00:49 31.5 °F /  -0.3 °C 27.2 °F /  -2.7 °C 30.25in /  1024.3hPa Calm     84% 0.00in /  0mm
00:54 31.5 °F /  -0.3 °C 27.2 °F /  -2.7 °C 30.25in /  1024.3hPa Calm     84% 0.00in /  0mm
00:59 31.6 °F /  -0.2 °C 27.3 °F /  -2.6 °C 30.25in /  1024.3hPa Calm     84% 0.00in /  0mm
01:09 31.7 °F /  -0.2 °C 27.4 °F /  -2.6 °C 30.26in /  1024.6hPa Calm     84% 0.00in /  0mm
01:14 31.6 °F /  -0.2 °C 27.3 °F /  -2.6 °C 30.26in /  1024.6hPa Calm     84% 0.00in /  0mm
01:24 31.4 °F /  -0.3 °C 27.1 °F /  -2.7 °C 30.27in /  1024.9hPa Calm     84% 0.00in /  0mm
01:29 31.7 °F /  -0.2 °C 27.7 °F /  -2.4 °C 30.27in /  1024.9hPa Calm     85% 0.00in /  0mm
01:34 32.0 °F /  0 °C 28.0 °F /  -2.2 °C 30.27in /  1024.9hPa Calm     85% 0.00in /  0mm
01:39 32.2 °F /  0.1 °C 28.2 °F /  -2.1 °C 30.27in /  1024.9hPa Calm     85% 0.00in /  0mm
01:44 32.6 °F /  0.3 °C 28.6 °F /  -1.9 °C 30.27in /  1024.9hPa Calm     85% 0.00in /  0mm
01:49 32.9 °F /  0.5 °C 28.9 °F /  -1.7 °C 30.27in /  1024.9hPa Calm     85% 0.00in /  0mm
02:14 33.4 °F /  0.8 °C 29.1 °F /  -1.6 °C 30.25in /  1024.3hPa Calm     84% 0.00in /  0mm
02:19 33.4 °F /  0.8 °C 29.1 °F /  -1.6 °C 30.25in /  1024.3hPa SSE 1.0mph /  1.6km/h 4.0mph /  6.4km/h 84% 0.00in /  0mm
02:24 33.3 °F /  0.7 °C 29.0 °F /  -1.7 °C 30.25in /  1024.3hPa Calm   4.0mph /  6.4km/h 84% 0.00in /  0mm
02:34 33.5 °F /  0.8 °C 29.2 °F /  -1.6 °C 30.25in /  1024.3hPa Calm     84% 0.00in /  0mm
02:39 33.5 °F /  0.8 °C 29.2 °F /  -1.6 °C 30.25in /  1024.3hPa Calm     84% 0.00in /  0mm
02:49 33.5 °F /  0.8 °C 29.2 °F /  -1.6 °C 30.25in /  1024.3hPa Calm     84% 0.00in /  0mm
02:59 33.4 °F /  0.8 °C 29.1 °F /  -1.6 °C 30.25in /  1024.3hPa Calm     84% 0.00in /  0mm
03:04 33.4 °F /  0.8 °C 29.1 °F /  -1.6 °C 30.25in /  1024.3hPa Calm     84% 0.00in /  0mm
03:14 33.2 °F /  0.7 °C 28.9 °F /  -1.7 °C 30.25in /  1024.3hPa Calm     84% 0.00in /  0mm
03:24 32.9 °F /  0.5 °C 28.9 °F /  -1.7 °C 30.26in /  1024.6hPa Calm     85% 0.00in /  0mm
03:29 33.2 °F /  0.7 °C 29.2 °F /  -1.6 °C 30.26in /  1024.6hPa Calm     85% 0.00in /  0mm
03:34 33.2 °F /  0.7 °C 29.2 °F /  -1.6 °C 30.25in /  1024.3hPa Calm     85% 0.00in /  0mm
03:39 33.1 °F /  0.6 °C 29.1 °F /  -1.6 °C 30.25in /  1024.3hPa Calm     85% 0.00in /  0mm
03:49 33.0 °F /  0.6 °C 29.0 °F /  -1.7 °C 30.25in /  1024.3hPa Calm     85% 0.00in /  0mm
03:54 33.0 °F /  0.6 °C 29.0 °F /  -1.7 °C 30.25in /  1024.3hPa Calm     85% 0.00in /  0mm
04:04 32.8 °F /  0.4 °C 28.8 °F /  -1.8 °C 30.24in /  1023.9hPa Calm     85% 0.00in /  0mm
04:09 32.7 °F /  0.4 °C 28.7 °F /  -1.8 °C 30.24in /  1023.9hPa Calm     85% 0.00in /  0mm
04:19 32.5 °F /  0.3 °C 28.5 °F /  -1.9 °C 30.24in /  1023.9hPa Calm     85% 0.00in /  0mm
04:24 32.2 °F /  0.1 °C 28.2 °F /  -2.1 °C 30.24in /  1023.9hPa Calm     85% 0.00in /  0mm
04:29 32.0 °F /  0 °C 28.0 °F /  -2.2 °C 30.24in /  1023.9hPa Calm     85% 0.00in /  0mm
04:34 32.0 °F /  0 °C 28.3 °F /  -2.1 °C 30.24in /  1023.9hPa Calm     86% 0.00in /  0mm
04:39 31.9 °F /  -0.1 °C 28.2 °F /  -2.1 °C 30.23in /  1023.6hPa Calm     86% 0.00in /  0mm
04:44 31.8 °F /  -0.1 °C 28.1 °F /  -2.2 °C 30.23in /  1023.6hPa Calm     86% 0.00in /  0mm
04:54 31.7 °F /  -0.2 °C 28.0 °F /  -2.2 °C 30.23in /  1023.6hPa Calm     86% 0.00in /  0mm
04:59 31.6 °F /  -0.2 °C 27.9 °F /  -2.3 °C 30.23in /  1023.6hPa Calm     86% 0.00in /  0mm
05:04 31.7 °F /  -0.2 °C 28.0 °F /  -2.2 °C 30.23in /  1023.6hPa Calm     86% 0.00in /  0mm
05:09 31.4 °F /  -0.3 °C 27.7 °F /  -2.4 °C 30.23in /  1023.6hPa Calm     86% 0.00in /  0mm
05:19 31.0 °F /  -0.6 °C 27.3 °F /  -2.6 °C 30.23in /  1023.6hPa Calm     86% 0.00in /  0mm
05:24 30.9 °F /  -0.6 °C 27.5 °F /  -2.5 °C 30.23in /  1023.6hPa Calm     87% 0.00in /  0mm
05:29 30.8 °F /  -0.7 °C 27.4 °F /  -2.6 °C 30.23in /  1023.6hPa Calm     87% 0.00in /  0mm
05:34 30.7 °F /  -0.7 °C 27.3 °F /  -2.6 °C 30.23in /  1023.6hPa Calm     87% 0.00in /  0mm
05:39 30.7 °F /  -0.7 °C 27.3 °F /  -2.6 °C 30.23in /  1023.6hPa Calm     87% 0.00in /  0mm
05:44 30.7 °F /  -0.7 °C 27.3 °F /  -2.6 °C 30.23in /  1023.6hPa Calm     87% 0.00in /  0mm
05:49 30.7 °F /  -0.7 °C 27.3 °F /  -2.6 °C 30.23in /  1023.6hPa Calm     87% 0.00in /  0mm
06:04 31.4 °F /  -0.3 °C 28.3 °F /  -2.1 °C 30.23in /  1023.6hPa Calm     88% 0.00in /  0mm
06:09 31.3 °F /  -0.4 °C 27.9 °F /  -2.3 °C 30.23in /  1023.6hPa Calm     87% 0.00in /  0mm
06:14 31.1 °F /  -0.5 °C 27.7 °F /  -2.4 °C 30.24in /  1023.9hPa Calm     87% 0.00in /  0mm
06:19 31.1 °F /  -0.5 °C 28.0 °F /  -2.2 °C 30.24in /  1023.9hPa Calm     88% 0.00in /  0mm
06:24 31.0 °F /  -0.6 °C 27.6 °F /  -2.4 °C 30.24in /  1023.9hPa Calm     87% 0.00in /  0mm
06:29 30.9 °F /  -0.6 °C 27.8 °F /  -2.3 °C 30.24in /  1023.9hPa Calm     88% 0.00in /  0mm
06:44 30.3 °F /  -0.9 °C 26.9 °F /  -2.8 °C 30.24in /  1023.9hPa Calm     87% 0.00in /  0mm
06:49 30.1 °F /  -1.1 °C 26.7 °F /  -2.9 °C 30.24in /  1023.9hPa Calm     87% 0.00in /  0mm
07:09 30.4 °F /  -0.9 °C 27.3 °F /  -2.6 °C 30.24in /  1023.9hPa Calm     88% 0.00in /  0mm
07:14 30.6 °F /  -0.8 °C 27.5 °F /  -2.5 °C 30.24in /  1023.9hPa Calm     88% 0.00in /  0mm
07:19 30.6 °F /  -0.8 °C 27.5 °F /  -2.5 °C 30.24in /  1023.9hPa Calm     88% 0.00in /  0mm
07:24 30.5 °F /  -0.8 °C 27.4 °F /  -2.6 °C 30.24in /  1023.9hPa Calm     88% 0.00in /  0mm
07:34 30.5 °F /  -0.8 °C 27.4 °F /  -2.6 °C 30.24in /  1023.9hPa Calm     88% 0.00in /  0mm
07:39 30.6 °F /  -0.8 °C 27.5 °F /  -2.5 °C 30.24in /  1023.9hPa Calm     88% 0.00in /  0mm
07:44 30.6 °F /  -0.8 °C 27.5 °F /  -2.5 °C 30.24in /  1023.9hPa Calm     88% 0.00in /  0mm
07:54 31.0 °F /  -0.6 °C 27.9 °F /  -2.3 °C 30.24in /  1023.9hPa Calm     88% 0.00in /  0mm
07:59 31.1 °F /  -0.5 °C 28.0 °F /  -2.2 °C 30.24in /  1023.9hPa Calm     88% 0.00in /  0mm
08:04 31.3 °F /  -0.4 °C 28.2 °F /  -2.1 °C 30.24in /  1023.9hPa Calm     88% 0.00in /  0mm
08:09 31.5 °F /  -0.3 °C 28.4 °F /  -2 °C 30.24in /  1023.9hPa Calm     88% 0.00in /  0mm
08:14 31.7 °F /  -0.2 °C 28.6 °F /  -1.9 °C 30.24in /  1023.9hPa Calm     88% 0.00in /  0mm
08:19 32.0 °F /  0 °C 28.8 °F /  -1.8 °C 30.24in /  1023.9hPa Calm     88% 0.00in /  0mm
08:24 32.4 °F /  0.2 °C 29.2 °F /  -1.6 °C 30.24in /  1023.9hPa Calm     88% 0.00in /  0mm
08:34 32.8 °F /  0.4 °C 29.4 °F /  -1.4 °C 30.24in /  1023.9hPa Calm     87% 0.00in /  0mm
08:49 33.6 °F /  0.9 °C 29.9 °F /  -1.2 °C 30.24in /  1023.9hPa Calm     86% 0.00in /  0mm
08:54 34.0 °F /  1.1 °C 30.3 °F /  -0.9 °C 30.24in /  1023.9hPa Calm     86% 0.00in /  0mm
08:59 34.3 °F /  1.3 °C 30.3 °F /  -0.9 °C 30.24in /  1023.9hPa Calm     85% 0.00in /  0mm
09:04 34.5 °F /  1.4 °C 30.5 °F /  -0.8 °C 30.24in /  1023.9hPa Calm     85% 0.00in /  0mm
09:09 34.8 °F /  1.6 °C 30.8 °F /  -0.7 °C 30.24in /  1023.9hPa Calm     85% 0.00in /  0mm
09:14 35.2 °F /  1.8 °C 30.9 °F /  -0.6 °C 30.24in /  1023.9hPa Calm     84% 0.00in /  0mm
09:19 35.5 °F /  1.9 °C 31.1 °F /  -0.5 °C 30.24in /  1023.9hPa Calm     84% 0.00in /  0mm
09:24 36.0 °F /  2.2 °C 31.3 °F /  -0.4 °C 30.24in /  1023.9hPa Calm     83% 0.00in /  0mm
09:29 36.1 °F /  2.3 °C 31.1 °F /  -0.5 °C 30.24in /  1023.9hPa Calm     82% 0.00in /  0mm
09:34 36.4 °F /  2.4 °C 31.4 °F /  -0.3 °C 30.24in /  1023.9hPa Calm     82% 0.00in /  0mm
09:44 36.9 °F /  2.7 °C 31.6 °F /  -0.2 °C 30.24in /  1023.9hPa Calm     81% 0.00in /  0mm
09:49 37.1 °F /  2.8 °C 31.5 °F /  -0.3 °C 30.24in /  1023.9hPa Calm     80% 0.00in /  0mm
09:59 37.7 °F /  3.2 °C 31.8 °F /  -0.1 °C 30.24in /  1023.9hPa Calm     79% 0.00in /  0mm
10:04 38.0 °F /  3.3 °C 32.1 °F /  0.1 °C 30.24in /  1023.9hPa Calm     79% 0.00in /  0mm
10:09 38.3 °F /  3.5 °C 32.4 °F /  0.2 °C 30.24in /  1023.9hPa Calm     79% 0.00in /  0mm
10:14 38.5 °F /  3.6 °C 32.2 °F /  0.1 °C 30.24in /  1023.9hPa Calm     78% 0.00in /  0mm
10:19 38.8 °F /  3.8 °C 32.5 °F /  0.3 °C 30.24in /  1023.9hPa Calm     78% 0.00in /  0mm
10:24 38.9 °F /  3.8 °C 32.3 °F /  0.2 °C 30.24in /  1023.9hPa Calm     77% 0.00in /  0mm
10:29 39.1 °F /  3.9 °C 32.5 °F /  0.3 °C 30.24in /  1023.9hPa Calm     77% 0.00in /  0mm
10:34 39.2 °F /  4 °C 32.6 °F /  0.3 °C 30.24in /  1023.9hPa Calm     77% 0.00in /  0mm
10:39 39.3 °F /  4.1 °C 32.7 °F /  0.4 °C 30.24in /  1023.9hPa Calm     77% 0.00in /  0mm
10:44 39.5 °F /  4.2 °C 32.6 °F /  0.3 °C 30.24in /  1023.9hPa Calm     76% 0.00in /  0mm
10:49 39.7 °F /  4.3 °C 32.8 °F /  0.4 °C 30.24in /  1023.9hPa Calm     76% 0.00in /  0mm
10:54 39.7 °F /  4.3 °C 32.8 °F /  0.4 °C 30.23in /  1023.6hPa Calm     76% 0.00in /  0mm
10:59 39.9 °F /  4.4 °C 32.6 °F /  0.3 °C 30.24in /  1023.9hPa SW 1.0mph /  1.6km/h 5.0mph /  8km/h 75% 0.00in /  0mm
11:04 40.0 °F /  4.4 °C 33.0 °F /  0.6 °C 30.23in /  1023.6hPa SW 1.0mph /  1.6km/h 5.0mph /  8km/h 76% 0.00in /  0mm
11:09 40.2 °F /  4.6 °C 32.9 °F /  0.5 °C 30.23in /  1023.6hPa Calm   3.0mph /  4.8km/h 75% 0.00in /  0mm
11:14 40.3 °F /  4.6 °C 33.0 °F /  0.6 °C 30.23in /  1023.6hPa Calm   3.0mph /  4.8km/h 75% 0.00in /  0mm
11:19 40.4 °F /  4.7 °C 32.8 °F /  0.4 °C 30.23in /  1023.6hPa SW 3.0mph /  4.8km/h 3.0mph /  4.8km/h 74% 0.00in /  0mm
11:24 40.5 °F /  4.7 °C 33.2 °F /  0.7 °C 30.23in /  1023.6hPa SW 1.0mph /  1.6km/h 3.0mph /  4.8km/h 75% 0.00in /  0mm
11:29 40.7 °F /  4.8 °C 33.4 °F /  0.8 °C 30.23in /  1023.6hPa SW 1.0mph /  1.6km/h 3.0mph /  4.8km/h 75% 0.00in /  0mm
11:34 40.6 °F /  4.8 °C 33.0 °F /  0.6 °C 30.23in /  1023.6hPa SW 1.0mph /  1.6km/h 3.0mph /  4.8km/h 74% 0.00in /  0mm
11:44 41.2 °F /  5.1 °C 33.9 °F /  1.1 °C 30.23in /  1023.6hPa SW 2.0mph /  3.2km/h 4.0mph /  6.4km/h 75% 0.00in /  0mm
11:49 41.4 °F /  5.2 °C 34.1 °F /  1.2 °C 30.22in /  1023.2hPa Calm   2.0mph /  3.2km/h 75% 0.00in /  0mm
11:54 41.5 °F /  5.3 °C 34.2 °F /  1.2 °C 30.22in /  1023.2hPa Calm   3.0mph /  4.8km/h 75% 0.00in /  0mm
11:59 41.6 °F /  5.3 °C 33.9 °F /  1.1 °C 30.22in /  1023.2hPa SW 1.0mph /  1.6km/h 4.0mph /  6.4km/h 74% 0.00in /  0mm
12:09 41.6 °F /  5.3 °C 34.3 °F /  1.3 °C 30.21in /  1022.9hPa SW 1.0mph /  1.6km/h 3.0mph /  4.8km/h 75% 0.00in /  0mm
12:14 41.7 °F /  5.4 °C 34.4 °F /  1.3 °C 30.21in /  1022.9hPa SW 1.0mph /  1.6km/h 3.0mph /  4.8km/h 75% 0.00in /  0mm
12:19 41.8 °F /  5.4 °C 34.5 °F /  1.4 °C 30.21in /  1022.9hPa Calm   2.0mph /  3.2km/h 75% 0.00in /  0mm
12:24 41.9 °F /  5.5 °C 34.6 °F /  1.4 °C 30.21in /  1022.9hPa SW 1.0mph /  1.6km/h 3.0mph /  4.8km/h 75% 0.00in /  0mm
12:29 42.0 °F /  5.6 °C 34.6 °F /  1.4 °C 30.20in /  1022.6hPa SW 1.0mph /  1.6km/h 3.0mph /  4.8km/h 75% 0.00in /  0mm
12:34 42.5 °F /  5.8 °C 35.5 °F /  1.9 °C 30.20in /  1022.6hPa SW 1.0mph /  1.6km/h 3.0mph /  4.8km/h 76% 0.00in /  0mm
12:39 42.5 °F /  5.8 °C 35.1 °F /  1.7 °C 30.20in /  1022.6hPa SW 3.0mph /  4.8km/h 4.0mph /  6.4km/h 75% 0.00in /  0mm
12:44 42.4 °F /  5.8 °C 35.0 °F /  1.7 °C 30.20in /  1022.6hPa Calm   3.0mph /  4.8km/h 75% 0.00in /  0mm
12:49 42.5 °F /  5.8 °C 35.1 °F /  1.7 °C 30.20in /  1022.6hPa WSW 1.0mph /  1.6km/h 3.0mph /  4.8km/h 75% 0.00in /  0mm
12:54 42.7 °F /  5.9 °C 35.7 °F /  2.1 °C 30.19in /  1022.2hPa SW 2.0mph /  3.2km/h 4.0mph /  6.4km/h 76% 0.00in /  0mm
12:59 43.0 °F /  6.1 °C 35.6 °F /  2 °C 30.20in /  1022.6hPa Calm   4.0mph /  6.4km/h 75% 0.00in /  0mm
13:09 43.3 °F /  6.3 °C 35.9 °F /  2.2 °C 30.19in /  1022.2hPa SW 1.0mph /  1.6km/h 5.0mph /  8km/h 75% 0.00in /  0mm
13:14 43.3 °F /  6.3 °C 35.9 °F /  2.2 °C 30.19in /  1022.2hPa WSW 1.0mph /  1.6km/h 5.0mph /  8km/h 75% 0.00in /  0mm
13:19 43.1 °F /  6.2 °C 35.7 °F /  2.1 °C 30.19in /  1022.2hPa SW 2.0mph /  3.2km/h 4.0mph /  6.4km/h 75% 0.00in /  0mm
13:24 42.8 °F /  6 °C 35.8 °F /  2.1 °C 30.18in /  1021.9hPa Calm   5.0mph /  8km/h 76% 0.00in /  0mm
13:29 43.1 °F /  6.2 °C 36.0 °F /  2.2 °C 30.18in /  1021.9hPa Calm     76% 0.00in /  0mm
13:34 43.1 °F /  6.2 °C 36.0 °F /  2.2 °C 30.18in /  1021.9hPa Calm     76% 0.00in /  0mm
13:39 43.1 °F /  6.2 °C 36.0 °F /  2.2 °C 30.18in /  1021.9hPa Calm   3.0mph /  4.8km/h 76% 0.00in /  0mm
13:49 43.0 °F /  6.1 °C 36.0 °F /  2.2 °C 30.18in /  1021.9hPa Calm   3.0mph /  4.8km/h 76% 0.00in /  0mm
14:04 44.5 °F /  6.9 °C 37.1 °F /  2.8 °C 30.18in /  1021.9hPa SW 1.0mph /  1.6km/h 5.0mph /  8km/h 75% 0.00in /  0mm
14:09 44.3 °F /  6.8 °C 36.5 °F /  2.5 °C 30.17in /  1021.6hPa SW 2.0mph /  3.2km/h 5.0mph /  8km/h 74% 0.00in /  0mm
14:14 43.7 °F /  6.5 °C 36.3 °F /  2.4 °C 30.17in /  1021.6hPa SSW 1.0mph /  1.6km/h 4.0mph /  6.4km/h 75% 0.00in /  0mm
14:19 43.6 °F /  6.4 °C 36.2 °F /  2.3 °C 30.16in /  1021.2hPa SSW 1.0mph /  1.6km/h 6.0mph /  9.7km/h 75% 0.00in /  0mm
14:34 44.7 °F /  7.1 °C 36.6 °F /  2.6 °C 30.17in /  1021.6hPa WSW 4.0mph /  6.4km/h 5.0mph /  8km/h 73% 0.00in /  0mm
14:39 44.7 °F /  7.1 °C 36.6 °F /  2.6 °C 30.16in /  1021.2hPa SSW 2.0mph /  3.2km/h 5.0mph /  8km/h 73% 0.00in /  0mm
14:44 44.8 °F /  7.1 °C 36.7 °F /  2.6 °C 30.16in /  1021.2hPa SSW 1.0mph /  1.6km/h 4.0mph /  6.4km/h 73% 0.00in /  0mm
14:49 44.3 °F /  6.8 °C 36.2 °F /  2.3 °C 30.16in /  1021.2hPa South 2.0mph /  3.2km/h 5.0mph /  8km/h 73% 0.00in /  0mm
14:59 43.8 °F /  6.6 °C 35.7 °F /  2.1 °C 30.17in /  1021.6hPa South 1.0mph /  1.6km/h 4.0mph /  6.4km/h 73% 0.00in /  0mm
15:09 43.5 °F /  6.4 °C 35.8 °F /  2.1 °C 30.16in /  1021.2hPa South 1.0mph /  1.6km/h 4.0mph /  6.4km/h 74% 0.00in /  0mm
15:24 43.4 °F /  6.3 °C 35.3 °F /  1.8 °C 30.16in /  1021.2hPa South 2.0mph /  3.2km/h 6.0mph /  9.7km/h 73% 0.00in /  0mm
15:34 43.4 °F /  6.3 °C 35.7 °F /  2.1 °C 30.16in /  1021.2hPa Calm   3.0mph /  4.8km/h 74% 0.00in /  0mm
15:44 43.9 °F /  6.6 °C 35.5 °F /  1.9 °C 30.16in /  1021.2hPa South 1.0mph /  1.6km/h 5.0mph /  8km/h 72% 0.00in /  0mm
15:49 43.5 °F /  6.4 °C 35.1 °F /  1.7 °C 30.16in /  1021.2hPa South 2.0mph /  3.2km/h 5.0mph /  8km/h 72% 0.00in /  0mm
15:54 43.3 °F /  6.3 °C 34.9 °F /  1.6 °C 30.16in /  1021.2hPa SE 2.0mph /  3.2km/h 2.0mph /  3.2km/h 72% 0.00in /  0mm
15:59 43.3 °F /  6.3 °C 34.9 °F /  1.6 °C 30.16in /  1021.2hPa SE 1.0mph /  1.6km/h 2.0mph /  3.2km/h 72% 0.00in /  0mm
16:09 43.0 °F /  6.1 °C 34.2 °F /  1.2 °C 30.15in /  1020.9hPa Calm   3.0mph /  4.8km/h 71% 0.00in /  0mm
16:19 42.9 °F /  6.1 °C 33.8 °F /  1 °C 30.15in /  1020.9hPa SSE 1.0mph /  1.6km/h 3.0mph /  4.8km/h 70% 0.00in /  0mm
16:24 42.5 °F /  5.8 °C 33.4 °F /  0.8 °C 30.15in /  1020.9hPa SSE 2.0mph /  3.2km/h 3.0mph /  4.8km/h 70% 0.00in /  0mm
16:29 42.1 °F /  5.6 °C 33.0 °F /  0.6 °C 30.15in /  1020.9hPa SSE 1.0mph /  1.6km/h 2.0mph /  3.2km/h 70% 0.00in /  0mm
16:34 41.8 °F /  5.4 °C 32.7 °F /  0.4 °C 30.14in /  1020.5hPa Calm   2.0mph /  3.2km/h 70% 0.00in /  0mm
16:39 41.5 °F /  5.3 °C 32.4 °F /  0.2 °C 30.14in /  1020.5hPa Calm   3.0mph /  4.8km/h 70% 0.00in /  0mm
16:44 41.1 °F /  5.1 °C 32.4 °F /  0.2 °C 30.15in /  1020.9hPa SSE 1.0mph /  1.6km/h 3.0mph /  4.8km/h 71% 0.00in /  0mm
16:49 40.8 °F /  4.9 °C 32.5 °F /  0.3 °C 30.15in /  1020.9hPa Calm   2.0mph /  3.2km/h 72% 0.00in /  0mm
16:54 40.6 °F /  4.8 °C 32.3 °F /  0.2 °C 30.15in /  1020.9hPa Calm     72% 0.00in /  0mm
16:59 40.4 °F /  4.7 °C 32.1 °F /  0.1 °C 30.15in /  1020.9hPa Calm     72% 0.00in /  0mm
17:04 39.9 °F /  4.4 °C 31.9 °F /  -0.1 °C 30.16in /  1021.2hPa Calm     73% 0.00in /  0mm
17:09 39.9 °F /  4.4 °C 31.9 °F /  -0.1 °C 30.17in /  1021.6hPa Calm     73% 0.00in /  0mm
17:14 39.8 °F /  4.3 °C 31.8 °F /  -0.1 °C 30.17in /  1021.6hPa Calm     73% 0.00in /  0mm
17:24 39.7 °F /  4.3 °C 32.1 °F /  0.1 °C 30.17in /  1021.6hPa Calm     74% 0.00in /  0mm
17:29 39.7 °F /  4.3 °C 32.1 °F /  0.1 °C 30.17in /  1021.6hPa Calm     74% 0.00in /  0mm
17:34 39.7 °F /  4.3 °C 32.4 °F /  0.2 °C 30.17in /  1021.6hPa Calm     75% 0.00in /  0mm
17:39 39.8 °F /  4.3 °C 32.2 °F /  0.1 °C 30.17in /  1021.6hPa Calm     74% 0.00in /  0mm
17:44 39.8 °F /  4.3 °C 32.5 °F /  0.3 °C 30.17in /  1021.6hPa Calm     75% 0.00in /  0mm
17:49 39.9 °F /  4.4 °C 32.6 °F /  0.3 °C 30.17in /  1021.6hPa Calm     75% 0.00in /  0mm
18:04 40.1 °F /  4.5 °C 32.8 °F /  0.4 °C 30.17in /  1021.6hPa Calm     75% 0.00in /  0mm
18:14 40.2 °F /  4.6 °C 32.9 °F /  0.5 °C 30.17in /  1021.6hPa Calm     75% 0.00in /  0mm
18:39 40.0 °F /  4.4 °C 33.0 °F /  0.6 °C 30.18in /  1021.9hPa Calm     76% 0.00in /  0mm
18:49 39.9 °F /  4.4 °C 33.3 °F /  0.7 °C 30.19in /  1022.2hPa Calm     77% 0.00in /  0mm
18:59 39.7 °F /  4.3 °C 33.1 °F /  0.6 °C 30.18in /  1021.9hPa Calm     77% 0.00in /  0mm
19:04 39.7 °F /  4.3 °C 33.1 °F /  0.6 °C 30.19in /  1022.2hPa Calm     77% 0.00in /  0mm
19:09 39.7 °F /  4.3 °C 33.4 °F /  0.8 °C 30.19in /  1022.2hPa Calm     78% 0.00in /  0mm
19:14 39.7 °F /  4.3 °C 33.4 °F /  0.8 °C 30.19in /  1022.2hPa Calm     78% 0.00in /  0mm
19:19 39.6 °F /  4.2 °C 33.3 °F /  0.7 °C 30.19in /  1022.2hPa Calm     78% 0.00in /  0mm
19:34 39.5 °F /  4.2 °C 32.9 °F /  0.5 °C 30.18in /  1021.9hPa Calm     77% 0.00in /  0mm
19:39 39.5 °F /  4.2 °C 32.9 °F /  0.5 °C 30.18in /  1021.9hPa Calm     77% 0.00in /  0mm
19:49 40.1 °F /  4.5 °C 33.1 °F /  0.6 °C 30.19in /  1022.2hPa Calm   1.0mph /  1.6km/h 76% 0.00in /  0mm
19:54 40.2 °F /  4.6 °C 32.9 °F /  0.5 °C 30.19in /  1022.2hPa Calm     75% 0.00in /  0mm
19:59 40.1 °F /  4.5 °C 32.5 °F /  0.3 °C 30.19in /  1022.2hPa Calm     74% 0.00in /  0mm
20:04 40.0 °F /  4.4 °C 32.4 °F /  0.2 °C 30.19in /  1022.2hPa Calm     74% 0.00in /  0mm
20:09 39.9 °F /  4.4 °C 32.3 °F /  0.2 °C 30.18in /  1021.9hPa Calm     74% 0.00in /  0mm
20:14 39.9 °F /  4.4 °C 32.3 °F /  0.2 °C 30.18in /  1021.9hPa Calm   1.0mph /  1.6km/h 74% 0.00in /  0mm
20:24 39.7 °F /  4.3 °C 32.1 °F /  0.1 °C 30.18in /  1021.9hPa Calm   2.0mph /  3.2km/h 74% 0.00in /  0mm
20:29 39.7 °F /  4.3 °C 32.1 °F /  0.1 °C 30.18in /  1021.9hPa Calm   2.0mph /  3.2km/h 74% 0.00in /  0mm
20:34 39.6 °F /  4.2 °C 32.0 °F /  0 °C 30.17in /  1021.6hPa Calm   2.0mph /  3.2km/h 74% 0.00in /  0mm
20:39 39.5 °F /  4.2 °C 31.9 °F /  -0.1 °C 30.17in /  1021.6hPa Calm     74% 0.00in /  0mm
20:44 39.3 °F /  4.1 °C 31.7 °F /  -0.2 °C 30.17in /  1021.6hPa Calm     74% 0.00in /  0mm
20:49 39.1 °F /  3.9 °C 31.8 °F /  -0.1 °C 30.17in /  1021.6hPa Calm     75% 0.00in /  0mm
20:54 39.0 °F /  3.9 °C 31.7 °F /  -0.2 °C 30.17in /  1021.6hPa Calm     75% 0.00in /  0mm
20:59 38.7 °F /  3.7 °C 31.5 °F /  -0.3 °C 30.17in /  1021.6hPa SSE 1.0mph /  1.6km/h 2.0mph /  3.2km/h 75% 0.00in /  0mm
21:14 38.0 °F /  3.3 °C 31.1 °F /  -0.5 °C 30.17in /  1021.6hPa Calm   1.0mph /  1.6km/h 76% 0.00in /  0mm
21:19 38.0 °F /  3.3 °C 31.1 °F /  -0.5 °C 30.17in /  1021.6hPa Calm     76% 0.00in /  0mm
21:29 37.9 °F /  3.3 °C 31.3 °F /  -0.4 °C 30.17in /  1021.6hPa Calm     77% 0.00in /  0mm
21:39 38.2 °F /  3.4 °C 31.6 °F /  -0.2 °C 30.17in /  1021.6hPa Calm     77% 0.00in /  0mm
21:44 38.2 °F /  3.4 °C 31.6 °F /  -0.2 °C 30.17in /  1021.6hPa Calm     77% 0.00in /  0mm
21:49 38.3 °F /  3.5 °C 31.7 °F /  -0.2 °C 30.17in /  1021.6hPa Calm     77% 0.00in /  0mm
21:54 38.2 °F /  3.4 °C 31.6 °F /  -0.2 °C 30.16in /  1021.2hPa Calm     77% 0.00in /  0mm
22:04 38.6 °F /  3.7 °C 32.0 °F /  0 °C 30.17in /  1021.6hPa SSE 1.0mph /  1.6km/h 4.0mph /  6.4km/h 77% 0.00in /  0mm
22:09 38.6 °F /  3.7 °C 31.7 °F /  -0.2 °C 30.16in /  1021.2hPa Calm     76% 0.00in /  0mm
22:14 38.6 °F /  3.7 °C 31.7 °F /  -0.2 °C 30.16in /  1021.2hPa Calm     76% 0.00in /  0mm
22:24 38.6 °F /  3.7 °C 31.7 °F /  -0.2 °C 30.16in /  1021.2hPa Calm     76% 0.00in /  0mm
22:29 38.6 °F /  3.7 °C 32.0 °F /  0 °C 30.16in /  1021.2hPa Calm     77% 0.00in /  0mm
22:34 38.6 °F /  3.7 °C 31.7 °F /  -0.2 °C 30.16in /  1021.2hPa Calm     76% 0.00in /  0mm
22:39 38.5 °F /  3.6 °C 31.9 °F /  -0.1 °C 30.16in /  1021.2hPa Calm     77% 0.00in /  0mm
22:44 38.5 °F /  3.6 °C 31.9 °F /  -0.1 °C 30.15in /  1020.9hPa Calm     77% 0.00in /  0mm
22:49 38.6 °F /  3.7 °C 32.0 °F /  0 °C 30.16in /  1021.2hPa Calm     77% 0.00in /  0mm
22:54 38.7 °F /  3.7 °C 31.8 °F /  -0.1 °C 30.15in /  1020.9hPa Calm     76% 0.00in /  0mm
23:19 38.9 °F /  3.8 °C 32.0 °F /  0 °C 30.15in /  1020.9hPa Calm     76% 0.00in /  0mm
23:24 38.8 °F /  3.8 °C 31.9 °F /  -0.1 °C 30.16in /  1021.2hPa Calm     76% 0.00in /  0mm
23:34 38.6 °F /  3.7 °C 31.7 °F /  -0.2 °C 30.16in /  1021.2hPa Calm     76% 0.00in /  0mm
23:39 38.5 °F /  3.6 °C 31.9 °F /  -0.1 °C 30.16in /  1021.2hPa Calm     77% 0.00in /  0mm
23:44 38.2 °F /  3.4 °C 31.6 °F /  -0.2 °C 30.16in /  1021.2hPa Calm     77% 0.00in /  0mm
23:49 38.0 °F /  3.3 °C 31.4 °F /  -0.3 °C 30.16in /  1021.2hPa Calm     77% 0.00in /  0mm
23:54 37.8 °F /  3.2 °C 31.6 °F /  -0.2 °C 30.16in /  1021.2hPa Calm     78% 0.00in /  0mm
Buffalo, New York, USA
Compliments of Weather Underground - 2 mb